createdAt,value
2019-01-15T00:01:07.564Z,9.77
2019-01-15T00:03:36.341Z,10.53
2019-01-15T00:06:05.211Z,6.47
2019-01-15T00:08:34.007Z,9.90
2019-01-15T00:11:02.808Z,10.97
2019-01-15T00:13:31.576Z,9.47
2019-01-15T00:16:00.354Z,9.40
2019-01-15T00:18:29.083Z,9.97
2019-01-15T00:20:57.878Z,11.70
2019-01-15T00:23:26.655Z,7.57
2019-01-15T00:25:55.423Z,8.17
2019-01-15T00:28:24.169Z,8.63
2019-01-15T00:30:52.940Z,10.43
2019-01-15T00:33:21.741Z,8.63
2019-01-15T00:35:50.704Z,10.10
2019-01-15T00:38:19.500Z,7.83
2019-01-15T00:40:48.320Z,9.40
2019-01-15T00:43:17.072Z,9.13
2019-01-15T00:45:45.892Z,6.80
2019-01-15T00:48:14.640Z,11.63
2019-01-15T00:50:43.419Z,7.77
2019-01-15T00:53:12.198Z,13.77
2019-01-15T00:55:40.978Z,7.83
2019-01-15T00:58:09.910Z,8.77
2019-01-15T01:00:38.717Z,7.90
2019-01-15T01:03:07.487Z,10.13
2019-01-15T01:05:36.468Z,10.13
2019-01-15T01:08:05.270Z,13.50
2019-01-15T01:10:34.088Z,8.83
2019-01-15T01:13:03.021Z,7.27
2019-01-15T01:15:31.774Z,6.00
2019-01-15T01:18:00.590Z,8.57
2019-01-15T01:20:29.380Z,9.10
2019-01-15T01:22:58.159Z,10.17
2019-01-15T01:25:26.959Z,13.90
2019-01-15T01:27:56.827Z,11.70
2019-01-15T01:30:25.617Z,12.97
2019-01-15T01:32:54.914Z,9.03
2019-01-15T01:35:23.810Z,8.47
2019-01-15T01:37:52.739Z,7.30
2019-01-15T01:40:21.616Z,8.40
2019-01-15T01:42:50.426Z,7.77
2019-01-15T01:45:19.436Z,8.47
2019-01-15T01:47:48.262Z,9.13
2019-01-15T01:50:17.164Z,11.43
2019-01-15T01:52:45.989Z,6.20
2019-01-15T01:55:15.458Z,9.27
2019-01-15T01:57:44.246Z,11.93
2019-01-15T02:00:17.027Z,8.17
2019-01-15T02:02:45.797Z,8.53
2019-01-15T02:05:14.815Z,8.93
2019-01-15T02:07:44.387Z,10.63
2019-01-15T02:10:14.369Z,8.50
2019-01-15T02:12:43.126Z,11.13
2019-01-15T02:15:14.671Z,11.03
2019-01-15T02:17:43.438Z,14.00
2019-01-15T02:20:12.617Z,9.47
2019-01-15T02:22:41.467Z,9.90
2019-01-15T02:25:10.340Z,8.60
2019-01-15T02:27:41.357Z,15.47
2019-01-15T02:30:11.202Z,10.57
2019-01-15T02:32:39.990Z,10.17
2019-01-15T02:35:08.877Z,10.03
2019-01-15T02:37:37.702Z,8.93
2019-01-15T02:40:07.169Z,11.83
2019-01-15T02:42:36.030Z,9.00
2019-01-15T02:45:05.699Z,12.50
2019-01-15T02:47:34.510Z,12.13
2019-01-15T02:50:03.246Z,15.23
2019-01-15T02:52:32.079Z,7.37
2019-01-15T02:55:00.851Z,6.53
2019-01-15T02:57:29.594Z,9.20
2019-01-15T02:59:58.392Z,12.40
2019-01-15T03:02:27.233Z,13.10
2019-01-15T03:04:56.061Z,10.73
2019-01-15T03:07:24.814Z,11.30
2019-01-15T03:09:53.668Z,8.13
2019-01-15T03:12:22.425Z,12.67
2019-01-15T03:14:51.250Z,10.33
2019-01-15T03:17:20.041Z,9.07
2019-01-15T03:19:48.866Z,9.20
2019-01-15T03:22:17.621Z,7.07
2019-01-15T03:24:46.465Z,8.77
2019-01-15T03:27:15.205Z,9.77
2019-01-15T03:29:44.035Z,12.43
2019-01-15T03:32:12.881Z,10.43
2019-01-15T03:34:41.662Z,10.70
2019-01-15T03:37:10.394Z,7.37
2019-01-15T03:39:39.220Z,11.67
2019-01-15T03:42:07.973Z,5.72
2019-01-15T03:44:36.857Z,9.30
2019-01-15T03:47:05.624Z,13.37
2019-01-15T03:49:34.416Z,8.90
2019-01-15T03:52:03.161Z,9.00
2019-01-15T03:54:31.910Z,9.80
2019-01-15T03:57:00.721Z,8.03
2019-01-15T03:59:30.428Z,10.33
2019-01-15T04:01:59.219Z,10.65
2019-01-15T04:04:27.979Z,8.70
2019-01-15T04:06:56.871Z,9.30
2019-01-15T04:09:25.879Z,8.40
2019-01-15T04:11:54.672Z,11.83
2019-01-15T04:14:23.533Z,10.80
2019-01-15T04:16:52.297Z,10.73
2019-01-15T04:19:21.202Z,11.50
2019-01-15T04:21:50.002Z,11.47
2019-01-15T04:24:18.751Z,13.27
2019-01-15T04:26:47.502Z,11.20
2019-01-15T04:29:16.270Z,8.67
2019-01-15T04:31:45.034Z,9.77
2019-01-15T04:34:13.764Z,10.60
2019-01-15T04:36:43.012Z,11.20
2019-01-15T04:39:11.753Z,10.27
2019-01-15T04:41:40.612Z,12.47
2019-01-15T04:44:09.451Z,7.83
2019-01-15T04:46:38.302Z,8.17
2019-01-15T04:49:07.079Z,7.87
2019-01-15T04:51:35.918Z,12.70
2019-01-15T04:54:04.743Z,10.93
2019-01-15T04:56:34.025Z,8.80
2019-01-15T04:59:02.807Z,6.43
2019-01-15T05:01:31.550Z,7.93
2019-01-15T05:04:00.320Z,10.23
2019-01-15T05:06:29.184Z,9.80
2019-01-15T05:08:59.078Z,9.87
2019-01-15T05:11:27.858Z,8.10
2019-01-15T05:13:56.649Z,8.20
2019-01-15T05:16:25.439Z,8.57
2019-01-15T05:18:54.932Z,10.87
2019-01-15T05:21:23.690Z,8.30
2019-01-15T05:23:52.467Z,8.20
2019-01-15T05:26:21.223Z,8.37
2019-01-15T05:28:50.066Z,7.53
2019-01-15T05:31:18.859Z,9.03
2019-01-15T05:33:47.625Z,6.93
2019-01-15T05:36:16.472Z,11.45
2019-01-15T05:38:45.294Z,9.23
2019-01-15T05:41:14.056Z,12.33
2019-01-15T05:43:42.855Z,6.83
2019-01-15T05:46:12.115Z,12.17
2019-01-15T05:48:40.987Z,7.80
2019-01-15T05:51:22.147Z,12.87
2019-01-15T05:53:51.042Z,8.37
2019-01-15T05:56:19.883Z,7.97
2019-01-15T05:58:48.607Z,8.57
2019-01-15T06:01:17.434Z,11.37
2019-01-15T06:03:46.255Z,8.80
2019-01-15T06:06:15.022Z,11.57
2019-01-15T06:08:43.790Z,12.30
2019-01-15T06:11:12.715Z,9.50
2019-01-15T06:13:42.714Z,12.10
2019-01-15T06:16:11.774Z,13.10
2019-01-15T06:18:41.081Z,11.80
2019-01-15T06:21:09.932Z,12.47
2019-01-15T06:23:38.828Z,14.37
2019-01-15T06:26:07.663Z,15.77
2019-01-15T06:28:36.664Z,13.23
2019-01-15T06:31:05.658Z,17.90
2019-01-15T06:33:34.436Z,14.33
2019-01-15T06:36:03.263Z,16.60
2019-01-15T06:38:32.065Z,17.53
2019-01-15T06:41:00.866Z,17.77
2019-01-15T06:43:29.674Z,14.43
2019-01-15T06:45:58.476Z,16.23
2019-01-15T06:48:27.749Z,20.57
2019-01-15T06:50:56.556Z,17.03
2019-01-15T06:53:25.410Z,19.63
2019-01-15T06:55:54.722Z,16.80
2019-01-15T06:58:23.788Z,18.87
2019-01-15T07:00:52.670Z,19.33
2019-01-15T07:03:21.444Z,20.70
2019-01-15T07:05:50.213Z,25.30
2019-01-15T07:08:19.045Z,24.07
2019-01-15T07:10:47.846Z,25.63
2019-01-15T07:13:16.658Z,24.90
2019-01-15T07:15:45.422Z,21.70
2019-01-15T07:18:14.226Z,27.37
2019-01-15T07:20:42.999Z,28.10
2019-01-15T07:23:11.777Z,27.67
2019-01-15T07:25:40.564Z,45.53
2019-01-15T07:28:09.346Z,38.10
2019-01-15T07:30:39.788Z,24.77
2019-01-15T07:33:08.922Z,29.70
2019-01-15T07:35:37.675Z,28.17
2019-01-15T07:38:08.527Z,29.77
2019-01-15T07:40:37.275Z,30.87
2019-01-15T07:43:06.111Z,28.90
2019-01-15T07:45:34.881Z,33.57
2019-01-15T07:48:03.715Z,28.70
2019-01-15T07:50:32.543Z,32.30
2019-01-15T07:53:01.308Z,31.63
2019-01-15T07:55:30.127Z,28.50
2019-01-15T07:57:58.985Z,31.70
2019-01-15T08:00:27.861Z,31.53
2019-01-15T08:02:56.706Z,29.10
2019-01-15T08:05:25.594Z,33.17
2019-01-15T08:07:54.362Z,29.50
2019-01-15T08:10:24.345Z,30.17
2019-01-15T08:12:53.149Z,31.02
2019-01-15T08:15:22.441Z,33.33
2019-01-15T08:17:51.251Z,30.43
2019-01-15T08:20:20.130Z,28.00
2019-01-15T08:22:48.947Z,33.07
2019-01-15T08:25:18.101Z,27.00
2019-01-15T08:27:46.934Z,30.13
2019-01-15T08:30:16.984Z,30.03
2019-01-15T08:32:45.754Z,30.33
2019-01-15T08:35:14.900Z,29.57
2019-01-15T08:37:43.773Z,31.57
2019-01-15T08:40:12.944Z,30.07
2019-01-15T08:42:41.789Z,30.70
2019-01-15T08:45:10.771Z,31.43
2019-01-15T08:47:45.685Z,31.93
2019-01-15T08:50:15.434Z,30.23
2019-01-15T08:52:44.246Z,32.80
2019-01-15T08:55:13.069Z,29.87
2019-01-15T08:57:42.090Z,29.07
2019-01-15T09:00:11.515Z,31.73
2019-01-15T09:02:40.396Z,28.80
2019-01-15T09:05:09.186Z,29.90
2019-01-15T09:07:38.076Z,36.67
2019-01-15T09:10:07.534Z,38.07
2019-01-15T09:12:36.319Z,36.70
2019-01-15T09:15:05.694Z,34.17
2019-01-15T09:17:34.454Z,37.23
2019-01-15T09:20:04.883Z,36.00
2019-01-15T09:22:33.756Z,32.60
2019-01-15T09:25:03.152Z,38.13
2019-01-15T09:27:31.939Z,36.13
2019-01-15T09:30:00.750Z,29.73
2019-01-15T09:32:29.506Z,25.03
2019-01-15T09:34:58.333Z,27.00
2019-01-15T09:37:27.341Z,38.23
2019-01-15T09:39:56.247Z,29.77
2019-01-15T09:42:25.110Z,33.90
2019-01-15T09:44:54.038Z,31.50
2019-01-15T09:47:22.955Z,25.53
2019-01-15T09:49:51.753Z,31.63
2019-01-15T09:52:21.042Z,28.10
2019-01-15T09:54:49.833Z,27.07
2019-01-15T09:57:18.671Z,31.63
2019-01-15T09:59:47.451Z,25.43
2019-01-15T10:02:16.219Z,23.23
2019-01-15T10:04:45.491Z,26.77
2019-01-15T10:07:14.291Z,23.50
2019-01-15T10:09:43.084Z,21.70
2019-01-15T10:12:15.115Z,25.57
2019-01-15T10:14:44.591Z,20.20
2019-01-15T10:17:13.354Z,24.67
2019-01-15T10:19:42.395Z,25.63
2019-01-15T10:22:11.336Z,21.70
2019-01-15T10:24:40.208Z,22.73
2019-01-15T10:27:09.334Z,20.50
2019-01-15T10:29:38.238Z,22.70
2019-01-15T10:32:29.653Z,21.23
2019-01-15T10:34:59.070Z,22.27
2019-01-15T10:37:27.891Z,17.63
2019-01-15T10:39:56.651Z,21.27
2019-01-15T10:42:25.460Z,19.70
2019-01-15T10:44:54.271Z,16.87
2019-01-15T10:47:23.074Z,19.27
2019-01-15T10:49:51.895Z,18.13
2019-01-15T10:52:20.696Z,17.27
2019-01-15T10:54:49.534Z,22.03
2019-01-15T10:57:18.356Z,15.90
2019-01-15T10:59:47.187Z,18.17
2019-01-15T11:02:15.992Z,16.67
2019-01-15T11:04:44.970Z,19.20
2019-01-15T11:07:13.770Z,23.33
2019-01-15T11:09:42.701Z,15.27
2019-01-15T11:12:11.469Z,16.33
2019-01-15T11:14:40.399Z,18.93
2019-01-15T11:17:09.692Z,15.73
2019-01-15T11:19:38.490Z,16.53
2019-01-15T11:22:07.278Z,16.43
2019-01-15T11:24:36.257Z,16.03
2019-01-15T11:27:05.545Z,16.63
2019-01-15T11:29:34.554Z,16.40
2019-01-15T11:32:03.327Z,16.27
2019-01-15T11:34:32.101Z,17.80
2019-01-15T11:37:00.935Z,17.27
2019-01-15T11:39:29.791Z,14.97
2019-01-15T11:41:58.607Z,22.47
2019-01-15T11:44:27.413Z,15.20
2019-01-15T11:46:56.289Z,17.83
2019-01-15T11:49:25.094Z,16.43
2019-01-15T11:51:53.874Z,17.77
2019-01-15T11:54:22.671Z,20.07
2019-01-15T11:56:51.678Z,21.27
2019-01-15T11:59:20.445Z,21.43
2019-01-15T12:02:14.412Z,18.07
2019-01-15T12:05:03.065Z,19.97
2019-01-15T12:07:49.375Z,24.37
2019-01-15T12:10:41.716Z,19.30
2019-01-15T12:13:29.521Z,18.97
2019-01-15T12:16:23.786Z,18.07
2019-01-15T12:19:10.303Z,24.93
2019-01-15T12:22:10.008Z,20.27
2019-01-15T12:25:00.604Z,17.80
2019-01-15T12:27:57.601Z,18.37
2019-01-15T12:30:54.335Z,15.03
2019-01-15T12:33:57.339Z,18.67
2019-01-15T12:36:48.047Z,22.57
2019-01-15T12:39:37.757Z,19.57
2019-01-15T12:42:24.052Z,21.87
2019-01-15T12:45:10.261Z,20.87
2019-01-15T12:47:58.594Z,20.83
2019-01-15T12:50:38.892Z,26.77
2019-01-15T12:53:41.681Z,19.13
2019-01-15T12:56:28.154Z,18.47
2019-01-15T12:59:18.980Z,21.27
2019-01-15T13:02:05.551Z,20.97
2019-01-15T13:04:47.645Z,23.17
2019-01-15T13:07:41.462Z,17.43
2019-01-15T13:10:47.943Z,16.83
2019-01-15T13:13:30.008Z,18.93
2019-01-15T13:16:17.826Z,17.80
2019-01-15T13:19:17.907Z,18.17
2019-01-15T13:22:04.105Z,18.13
2019-01-15T13:24:55.032Z,25.30
2019-01-15T13:27:43.150Z,18.30
2019-01-15T13:30:31.720Z,20.03
2019-01-15T13:33:28.583Z,18.03
2019-01-15T13:36:31.583Z,17.40
2019-01-15T13:39:28.279Z,16.97
2019-01-15T13:42:25.267Z,15.17
2019-01-15T13:45:19.105Z,19.37
2019-01-15T13:48:05.608Z,17.63
2019-01-15T13:50:45.670Z,18.47
2019-01-15T13:53:39.606Z,19.43
2019-01-15T13:56:27.418Z,15.10
2019-01-15T13:59:15.200Z,17.07
2019-01-15T14:02:03.002Z,18.03
2019-01-15T14:05:02.646Z,15.43
2019-01-15T14:08:02.735Z,16.27
2019-01-15T14:11:08.994Z,15.43
2019-01-15T14:13:55.243Z,15.33
2019-01-15T14:16:52.209Z,19.90
2019-01-15T14:19:51.835Z,15.90
2019-01-15T14:22:34.464Z,14.73
2019-01-15T14:25:31.350Z,14.90
2019-01-15T14:28:37.383Z,14.33
2019-01-15T14:31:36.828Z,13.20
2019-01-15T14:34:39.660Z,10.87
2019-01-15T14:37:33.260Z,14.27
2019-01-15T14:40:27.254Z,11.70
2019-01-15T14:43:21.244Z,13.10
2019-01-15T14:46:07.714Z,11.60
2019-01-15T14:48:52.075Z,15.97
2019-01-15T14:51:45.071Z,13.73
2019-01-15T14:54:35.734Z,12.07
2019-01-15T14:57:12.016Z,11.60
2019-01-15T15:00:02.780Z,12.00
2019-01-15T15:02:46.695Z,11.37
2019-01-15T15:05:40.656Z,10.13
2019-01-15T15:08:20.278Z,12.70
2019-01-15T15:11:14.974Z,11.27
2019-01-15T15:14:01.651Z,11.67
2019-01-15T15:16:48.070Z,10.20
2019-01-15T15:19:34.585Z,14.00
2019-01-15T15:22:28.410Z,13.03
2019-01-15T15:25:14.682Z,9.00
2019-01-15T15:28:08.642Z,11.30
2019-01-15T15:31:08.587Z,10.67
2019-01-15T15:34:05.481Z,12.10
2019-01-15T15:36:59.107Z,13.17
2019-01-15T15:39:55.849Z,10.93
2019-01-15T15:42:43.799Z,14.53
2019-01-15T15:45:40.873Z,8.83
2019-01-15T15:48:27.305Z,13.30
2019-01-15T15:51:05.501Z,11.37
2019-01-15T15:53:51.938Z,13.60
2019-01-15T15:56:54.727Z,14.27
2019-01-15T15:59:41.023Z,18.07
2019-01-15T16:02:46.994Z,10.47
2019-01-15T16:05:49.800Z,12.27
2019-01-15T16:08:36.043Z,11.73
2019-01-15T16:11:22.396Z,13.97
2019-01-15T16:14:05.661Z,9.67
2019-01-15T16:17:02.647Z,11.73
2019-01-15T16:19:56.584Z,19.50
2019-01-15T16:22:39.439Z,12.10
2019-01-15T16:25:25.993Z,13.57
2019-01-15T16:28:15.989Z,14.67
2019-01-15T16:31:02.221Z,14.07
2019-01-15T16:33:53.096Z,13.67
2019-01-15T16:36:46.755Z,11.57
2019-01-15T16:39:46.697Z,16.20
2019-01-15T16:42:32.996Z,11.33
2019-01-15T16:45:23.918Z,14.03
2019-01-15T16:48:14.843Z,17.03
2019-01-15T16:50:59.357Z,10.30
2019-01-15T16:53:41.004Z,14.50
2019-01-15T16:56:31.887Z,13.50
2019-01-15T16:59:25.491Z,15.37
2019-01-15T17:02:12.150Z,17.03
2019-01-15T17:04:54.268Z,11.90
2019-01-15T17:07:41.610Z,10.10
2019-01-15T17:10:33.525Z,14.33
2019-01-15T17:13:27.399Z,12.50
2019-01-15T17:16:34.055Z,17.33
2019-01-15T17:19:13.486Z,11.47
2019-01-15T17:22:07.724Z,14.17
2019-01-15T17:25:05.490Z,12.77
2019-01-15T17:28:06.138Z,11.87
2019-01-15T17:30:50.199Z,10.33
2019-01-15T17:33:53.178Z,13.53
2019-01-15T17:36:41.035Z,12.80
2019-01-15T17:39:28.890Z,11.77
2019-01-15T17:42:28.546Z,13.13
2019-01-15T17:45:13.675Z,11.70
2019-01-15T17:48:00.188Z,10.87
2019-01-15T17:50:57.407Z,11.30
2019-01-15T17:53:48.091Z,14.83
2019-01-15T17:56:38.686Z,11.63
2019-01-15T17:59:29.603Z,10.30
2019-01-15T18:02:20.287Z,10.43
2019-01-15T18:05:17.340Z,11.13
2019-01-15T18:08:03.579Z,10.00
2019-01-15T18:10:49.917Z,12.20
2019-01-15T18:13:46.946Z,10.13
2019-01-15T18:16:48.368Z,16.80
2019-01-15T18:19:29.297Z,12.47
2019-01-15T18:22:26.541Z,11.90
2019-01-15T18:25:13.022Z,17.57
2019-01-15T18:27:54.340Z,16.03
2019-01-15T18:30:45.093Z,14.60
2019-01-15T18:33:31.420Z,13.40
2019-01-15T18:36:19.291Z,12.00
2019-01-15T18:39:09.938Z,13.67
2019-01-15T18:41:49.961Z,11.13
2019-01-15T18:44:52.801Z,13.40
2019-01-15T18:47:46.364Z,13.57
2019-01-15T18:50:34.380Z,13.40
2019-01-15T18:53:25.351Z,13.70
2019-01-15T18:56:14.340Z,15.07
2019-01-15T18:59:14.213Z,15.20
2019-01-15T19:02:11.929Z,17.60
2019-01-15T19:05:02.915Z,13.67
2019-01-15T19:07:48.224Z,14.70
2019-01-15T19:10:45.170Z,15.37
2019-01-15T19:13:36.171Z,18.60
2019-01-15T19:16:26.887Z,13.33
2019-01-15T19:19:17.712Z,16.27
2019-01-15T19:22:11.580Z,17.33
2019-01-15T19:24:57.959Z,17.93
2019-01-15T19:27:44.705Z,18.53
2019-01-15T19:30:29.406Z,15.53
2019-01-15T19:33:26.251Z,16.52
2019-01-15T19:36:17.708Z,18.87
2019-01-15T19:39:05.618Z,15.80
2019-01-15T19:41:55.282Z,20.63
2019-01-15T19:44:43.403Z,19.07
2019-01-15T19:47:30.088Z,17.93
2019-01-15T19:50:27.186Z,20.27
2019-01-15T19:53:13.643Z,18.77
2019-01-15T19:56:16.591Z,24.40
2019-01-15T19:59:13.867Z,20.00
2019-01-15T20:02:05.289Z,22.43
2019-01-15T20:05:05.307Z,15.97
2019-01-15T20:07:56.431Z,18.63
2019-01-15T20:10:44.615Z,17.53
2019-01-15T20:13:26.335Z,16.10
2019-01-15T20:16:14.378Z,17.50
2019-01-15T20:19:00.829Z,15.57
2019-01-15T20:21:48.801Z,16.70
2019-01-15T20:24:39.678Z,17.10
2019-01-15T20:27:25.783Z,18.43
2019-01-15T20:30:12.544Z,16.00
2019-01-15T20:33:12.739Z,19.50
2019-01-15T20:36:03.670Z,18.77
2019-01-15T20:38:41.478Z,18.83
2019-01-15T20:41:27.852Z,14.60
2019-01-15T20:44:14.437Z,21.50
2019-01-15T20:47:11.236Z,18.60
2019-01-15T20:50:17.277Z,13.43
2019-01-15T20:53:08.847Z,16.37
2019-01-15T20:55:55.475Z,14.80
2019-01-15T20:58:41.982Z,15.27
2019-01-15T21:01:32.898Z,14.43
2019-01-15T21:04:23.841Z,15.30
2019-01-15T21:07:14.941Z,17.47
2019-01-15T21:10:02.918Z,17.97
2019-01-15T21:12:58.643Z,16.30
2019-01-15T21:15:43.078Z,14.27
2019-01-15T21:18:29.317Z,16.20
2019-01-15T21:21:23.229Z,18.57
2019-01-15T21:24:26.330Z,13.20
2019-01-15T21:27:26.407Z,19.67
2019-01-15T21:30:12.809Z,18.63
2019-01-15T21:33:19.179Z,14.33
2019-01-15T21:36:07.248Z,17.33
2019-01-15T21:38:54.558Z,15.23
2019-01-15T21:41:41.455Z,16.93
2019-01-15T21:44:47.829Z,15.40
2019-01-15T21:47:47.866Z,17.47
2019-01-15T21:50:36.162Z,18.30
2019-01-15T21:53:23.038Z,21.20
2019-01-15T21:56:23.388Z,16.70
2019-01-15T21:59:03.909Z,18.70
2019-01-15T22:01:54.895Z,18.73
2019-01-15T22:04:46.070Z,14.50
2019-01-15T22:07:39.955Z,18.00
2019-01-15T22:10:45.921Z,15.10
2019-01-15T22:13:42.808Z,17.20
2019-01-15T22:16:48.929Z,18.27
2019-01-15T22:19:37.163Z,16.03
2019-01-15T22:22:23.635Z,14.40
2019-01-15T22:25:23.881Z,15.70
2019-01-15T22:28:26.837Z,18.70
2019-01-15T22:31:17.177Z,19.00
2019-01-15T22:34:03.594Z,16.53
2019-01-15T22:37:06.484Z,17.53
2019-01-15T22:39:55.155Z,14.80
2019-01-15T22:42:42.948Z,14.83
2019-01-15T22:45:48.718Z,17.30
2019-01-15T22:48:31.957Z,16.30
2019-01-15T22:51:20.182Z,13.37
2019-01-15T22:54:05.208Z,15.10
2019-01-15T22:56:44.906Z,13.93
2019-01-15T22:59:41.872Z,14.77
2019-01-15T23:02:29.958Z,16.03
2019-01-15T23:05:17.907Z,14.13
2019-01-15T23:08:08.844Z,15.47
2019-01-15T23:10:59.675Z,19.57
2019-01-15T23:13:59.655Z,15.00
2019-01-15T23:16:44.807Z,13.73
2019-01-15T23:19:47.530Z,15.07
2019-01-15T23:22:47.283Z,13.53
2019-01-15T23:25:47.027Z,11.83
2019-01-15T23:28:33.899Z,12.90
2019-01-15T23:31:21.647Z,12.17
2019-01-15T23:34:18.534Z,12.70
2019-01-15T23:36:59.695Z,12.50
2019-01-15T23:39:46.191Z,11.83
2019-01-15T23:42:32.697Z,13.17
2019-01-15T23:45:26.635Z,15.90
2019-01-15T23:48:20.968Z,13.13
2019-01-15T23:50:59.014Z,14.40
2019-01-15T23:53:36.645Z,13.53
2019-01-15T23:56:23.170Z,14.13
2019-01-15T23:59:17.073Z,13.77
